Latest Weather Observations for Maatsuyker Island

IDT60801

Issued at 11:35 pm EST Friday 19 September 2014 (issued every 30 minutes, with the page automatically refreshed every 10 minutes)

About weather observations | Map of weather stations | Latest weather observations for TAS | Other Formats
Station Details ID: 094041 Name: MAATSUYKER ISLAND LIGHTHOUSE Lat: -43.66 Lon: 146.27 Height: 146.5 m
Data from the previous 72 hours. | See also: Recent months at Maatsuyker Island
Date/Time
EST
Temp
°C
App
Temp
°C
Dew
Point
Rel
Hum
%
Delta-T
°C
Wind Press
QNH
hPa
Press
MSL
hPa
Rain
since 9 am
mm
Dir
 
Spd
km/h
Gust
km/h
Spd
kts
Gust
kts
19/11:30pm 9.5 2.9 7.6 88 0.9 W 32 44 17 24 1020.6 - 0.6
19/11:00pm 9.8 2.1 7.3 84 1.2 W 37 46 20 25 1020.5 - 0.6
19/10:30pm 10.0 2.5 7.9 87 1.0 W 37 46 20 25 1020.3 - 0.6
19/10:00pm 9.9 3.0 7.4 84 1.2 W 33 43 18 23 1020.3 - 0.6
19/09:30pm 9.7 2.0 7.2 84 1.2 W 37 50 20 27 1020.4 - 0.6
19/09:00pm 9.8 2.3 7.9 88 0.9 W 37 50 20 27 1020.1 1020.2 0.6
19/08:30pm 9.6 3.2 8.4 92 0.6 W 32 44 17 24 1019.9 - 0.6
19/08:08pm 9.9 2.9 8.5 91 0.7 W 35 54 19 29 1019.9 - 0.6
19/08:00pm 9.7 2.3 8.3 91 0.7 W 37 52 20 28 1019.8 - 0.6
19/07:30pm 10.1 3.4 8.3 88 0.9 W 33 44 18 24 1019.5 - 0.6
19/07:00pm 9.9 3.1 7.6 85 1.1 W 33 48 18 26 1019.3 - 0.4
19/06:30pm 9.9 3.1 7.8 87 1.0 W 33 54 18 29 1018.8 - 0.4
19/06:25pm 9.9 2.6 7.4 84 1.2 W 35 54 19 29 1018.8 - 0.4
19/06:00pm 9.7 2.1 7.4 85 1.1 W 37 52 20 28 1018.6 1018.8 0.4
19/05:30pm 9.7 2.2 8.1 90 0.8 W 37 56 20 30 1018.2 - 0.4
19/05:09pm 9.2 1.4 8.2 93 0.5 W 39 57 21 31 1018.1 - 0.4
19/05:00pm 9.4 1.2 8.4 93 0.5 W 41 52 22 28 1017.9 - 0.4
19/04:49pm 9.5 0.5 8.7 95 0.4 WNW 46 65 25 35 1017.8 - 0.2
19/04:30pm 10.0 1.4 9.0 93 0.5 WNW 44 56 24 30 1017.4 - 0.2
19/04:00pm 10.0 -0.2 6.8 80 1.5 WNW 50 59 27 32 1017.5 - 0.2
19/03:30pm 10.7 0.6 7.6 81 1.5 WNW 50 57 27 31 1017.0 - 0.2
19/03:00pm 10.6 2.1 6.8 77 1.8 WSW 41 56 22 30 1017.0 1017.1 0.2
19/02:30pm 10.2 -0.6 7.5 83 1.3 WNW 54 61 29 33 1016.6 - 0.2
19/02:00pm 10.9 1.2 5.7 70 2.4 WNW 46 56 25 30 1016.8 - 0.2
19/01:30pm 10.3 -0.5 6.0 75 2.0 WNW 52 59 28 32 1016.8 - 0.2
19/01:00pm 10.5 0.9 4.5 66 2.7 WNW 44 57 24 31 1017.2 - 0.2
19/12:30pm 10.6 0.7 4.6 66 2.7 W 46 59 25 32 1017.4 - 0.2
19/12:07pm 10.9 1.5 4.5 64 2.9 W 43 61 23 33 1017.3 - 0.2
19/12:00pm 10.8 0.1 4.6 65 2.8 WNW 50 61 27 33 1017.5 1017.5 0.2
19/11:30am 10.6 0.3 4.9 68 2.6 WNW 48 59 26 32 1017.3 - 0.2
19/11:00am 10.5 1.1 5.3 70 2.4 WNW 44 56 24 30 1017.3 - 0.2
19/10:30am 9.7 0.1 4.3 69 2.4 WNW 44 54 24 29 1017.4 - 0.2
19/10:00am 9.5 -0.5 4.3 70 2.3 WNW 46 56 25 30 1017.4 - 0.2
19/09:30am 9.4 -1.0 4.2 70 2.3 WNW 48 59 26 32 1017.2 - 0.0
19/09:18am 9.4 0.7 5.9 79 1.6 WNW 41 59 22 32 1017.1 - 0.0
19/09:00am 9.2 1.5 7.1 87 1.0 SW 37 59 20 32 1017.3 1017.2 3.8
19/08:30am 9.2 0.7 6.9 85 1.1 W 41 52 22 28 1017.1 - 3.8
19/08:00am 9.3 0.3 6.5 83 1.3 W 43 52 23 28 1017.0 - 3.8
19/07:30am 9.2 0.3 6.9 85 1.1 WNW 43 57 23 31 1016.7 - 3.8
19/07:00am 9.3 0.2 6.1 80 1.5 W 43 54 23 29 1016.6 - 3.8
19/06:30am 8.8 -1.0 7.1 89 0.8 WNW 48 65 26 35 1016.4 - 3.8
19/06:18am 9.3 0.3 7.4 88 0.9 W 44 63 24 34 1016.1 - 3.8
19/06:00am 9.2 2.0 7.5 89 0.8 SW 35 56 19 30 1016.1 1016.3 3.8
19/05:30am 9.5 0.0 6.5 81 1.4 W 46 57 25 31 1015.7 - 3.8
19/05:00am 9.3 -0.2 6.5 83 1.3 W 46 61 25 33 1015.6 - 3.8
19/04:30am 9.5 0.9 6.7 83 1.3 W 41 54 22 29 1015.4 - 3.8
19/04:00am 9.4 -0.6 6.2 80 1.5 W 48 63 26 34 1015.2 - 3.8
19/03:42am 9.4 -0.5 6.6 83 1.3 W 48 67 26 36 1015.1 - 3.8
19/03:30am 9.4 -0.5 6.6 83 1.3 W 48 63 26 34 1015.0 - 3.8
19/03:00am 9.5 -0.2 7.4 87 1.0 W 48 65 26 35 1015.0 1015.2 3.8
19/02:30am 9.4 -1.3 8.0 91 0.7 WNW 54 67 29 36 1014.5 - 3.8
19/02:00am 9.2 -2.5 8.0 92 0.6 WNW 59 76 32 41 1014.7 - 3.8
19/01:39am 9.5 -1.6 8.1 91 0.7 WNW 56 74 30 40 1014.4 - 3.8
19/01:30am 9.4 -0.8 8.4 93 0.5 WNW 52 67 28 36 1014.8 - 3.6
19/01:18am 9.2 -1.9 8.2 93 0.5 W 56 74 30 40 1014.9 - 3.6
19/01:00am 9.5 -2.6 7.8 89 0.8 WNW 61 76 33 41 1014.5 - 3.6
19/12:30am 9.6 -3.2 8.2 91 0.7 WNW 65 83 35 45 1013.6 - 3.4
19/12:00am 9.4 -1.7 8.0 91 0.7 WNW 56 67 30 36 1014.1 1014.3 3.2
 
Date/Time
EST
Temp
°C
App
Temp
°C
Dew
Point
Rel
Hum
%
Delta-T
°C
Wind Press
QNH
hPa
Press
MSL
hPa
Rain
since 9 am
mm
Dir
 
Spd
km/h
Gust
km/h
Spd
kts
Gust
kts
18/11:30pm 8.9 -1.6 7.2 89 0.8 W 52 67 28 36 1015.0 - 3.2
18/11:23pm 9.0 -2.4 7.7 91 0.6 W 57 76 31 41 1015.1 - 3.2
18/11:00pm 9.2 -2.1 8.0 92 0.6 WNW 57 70 31 38 1014.5 - 3.0
18/10:30pm 9.4 -3.9 7.5 88 0.9 WNW 67 80 36 43 1014.8 - 2.4
18/10:00pm 9.3 -2.7 8.3 93 0.5 NW 61 72 33 39 1014.8 - 2.4
18/09:39pm 9.2 -3.7 7.7 90 0.7 NW 65 87 35 47 1014.1 - 2.2
18/09:30pm 9.6 -1.6 7.7 88 0.9 NW 56 65 30 35 1014.4 - 1.8
18/09:00pm 9.8 -1.9 6.4 79 1.6 WNW 57 72 31 39 1015.1 1015.1 1.4
18/08:30pm 9.6 -0.3 5.0 73 2.1 WNW 46 54 25 29 1015.7 - 1.4
18/08:00pm 9.5 0.5 4.6 71 2.2 W 41 50 22 27 1016.0 - 1.4
18/07:30pm 9.1 0.6 6.8 85 1.1 WNW 41 52 22 28 1016.0 - 1.4
18/07:00pm 9.1 -0.5 6.1 81 1.4 WNW 46 52 25 28 1015.9 - 1.4
18/06:30pm 9.2 -0.3 4.0 70 2.3 WNW 43 50 23 27 1016.0 - 1.4
18/06:00pm 9.3 -0.3 3.6 67 2.5 WNW 43 50 23 27 1015.8 1016.1 1.4
18/05:30pm 9.3 0.2 4.1 70 2.3 WNW 41 52 22 28 1016.0 - 1.4
18/05:00pm 9.1 0.5 4.4 72 2.1 W 39 48 21 26 1015.9 - 1.4
18/04:30pm 9.0 1.8 5.2 77 1.7 W 32 43 17 23 1015.8 - 1.4
18/04:00pm 9.2 0.7 5.2 76 1.8 W 39 52 21 28 1015.5 - 1.4
18/03:30pm 9.1 1.8 5.4 77 1.7 W 33 44 18 24 1015.3 - 1.4
18/03:00pm 9.6 1.9 5.2 74 2.0 SW 35 50 19 27 1015.3 1015.5 1.4
18/02:50pm 9.2 0.3 5.2 76 1.8 W 41 59 22 32 1015.2 - 1.4
18/02:30pm 8.8 -0.4 5.3 79 1.6 W 43 59 23 32 1015.0 - 1.4
18/02:07pm 8.6 1.3 5.3 80 1.5 W 33 54 18 29 1015.1 - 1.4
18/02:00pm 8.8 1.1 5.5 80 1.5 W 35 48 19 26 1015.0 - 1.4
18/01:42pm 8.9 0.5 5.6 80 1.5 WSW 39 57 21 31 1015.1 - 1.4
18/01:30pm 8.3 -0.7 4.7 78 1.6 WSW 41 52 22 28 1015.0 - 1.4
18/01:00pm 8.1 1.0 5.7 85 1.1 SW 32 46 17 25 1014.9 - 1.4
18/12:37pm 7.1 0.1 5.8 91 0.6 SW 32 50 17 27 1014.9 - 1.2
18/12:30pm 7.3 -0.6 6.0 91 0.6 SW 37 50 20 27 1015.0 - 1.0
18/12:17pm 7.3 -1.1 5.8 90 0.7 W 39 56 21 30 1015.2 - 0.8
18/12:00pm 7.1 -5.3 4.4 83 1.2 WNW 59 76 32 41 1015.3 1015.4 0.4
18/11:56am 7.4 -4.7 4.4 81 1.3 WNW 57 76 31 41 1015.2 - 0.2
18/11:30am 8.4 -4.1 4.3 75 1.8 NW 59 69 32 37 1014.0 - 0.0
18/11:00am 8.6 -2.5 4.3 74 1.9 WNW 52 59 28 32 1014.4 - 0.0
18/10:30am 8.6 -3.0 1.9 63 2.8 NW 52 61 28 33 1015.3 - 0.0
18/10:00am 7.9 -3.9 3.0 71 2.1 WNW 54 59 29 32 1015.5 - 0.0
18/09:30am 8.1 0.7 4.2 76 1.7 W 32 41 17 22 1016.1 - 0.0
18/09:00am 7.8 1.6 0.0 58 3.1 SW 22 44 12 24 1016.1 1016.3 5.6
18/08:30am 8.0 1.2 1.1 62 2.8 W 26 41 14 22 1016.0 - 5.6
18/08:02am 7.6 0.3 2.3 69 2.2 WSW 30 50 16 27 1015.9 - 5.6
18/08:00am 7.6 0.3 2.3 69 2.2 WSW 30 43 16 23 1015.9 - 5.6
18/07:30am 7.7 0.4 2.7 70 2.1 SW 30 39 16 21 1015.7 - 5.6
18/07:10am 7.3 -1.1 3.6 77 1.6 SSW 37 46 20 25 1015.2 - 5.6
18/07:00am 7.4 -0.5 1.2 65 2.5 SW 32 43 17 23 1015.1 - 5.6
18/06:52am 7.3 -0.6 1.1 65 2.5 SW 32 46 17 25 1015.1 - 5.6
18/06:30am 7.1 -2.5 3.3 77 1.6 SSW 43 50 23 27 1014.8 - 5.6
18/06:10am 7.2 -1.4 4.5 83 1.2 S 39 57 21 31 1014.3 - 5.6
18/06:00am 6.8 -1.2 3.8 81 1.3 SW 35 54 19 29 1014.3 1014.3 5.6
18/05:30am 6.4 -1.9 4.3 86 0.9 SSW 37 48 20 26 1014.1 - 5.4
18/05:10am 6.6 -4.2 4.3 85 1.0 SW 50 56 27 30 1014.0 - 5.2
18/05:05am 7.0 0.1 4.7 85 1.0 SSW 30 52 16 28 1013.7 - 5.2
18/05:00am 6.9 -0.1 4.1 82 1.2 SSW 30 41 16 22 1013.7 - 5.0
18/04:46am 6.6 -1.7 4.1 84 1.1 S 37 61 20 33 1013.6 - 5.0
18/04:38am 7.2 -5.0 3.7 78 1.5 SSW 57 61 31 33 1013.3 - 5.0
18/04:37am 7.3 -1.5 3.8 78 1.5 SSW 39 61 21 33 1013.3 - 5.0
18/04:30am 7.3 -0.8 3.3 76 1.7 SSW 35 43 19 23 1013.4 - 5.0
18/04:00am 7.7 -0.1 3.0 72 2.0 SSW 33 52 18 28 1013.1 - 5.0
18/03:56am 7.7 0.0 3.3 74 1.9 SSW 33 52 18 28 1013.1 - 5.0
18/03:30am 7.9 -1.5 4.5 79 1.5 SSW 43 50 23 27 1012.7 - 5.0
18/03:00am 7.6 -1.1 4.2 79 1.5 SSW 39 46 21 25 1012.6 1012.7 4.8
18/02:42am 7.5 -1.4 3.0 73 1.9 SSW 39 52 21 28 1012.5 - 4.8
18/02:30am 7.6 -0.5 3.4 75 1.8 WSW 35 46 19 25 1012.6 - 4.8
18/02:15am 7.3 0.3 4.1 80 1.4 WSW 30 57 16 31 1012.5 - 4.8
18/02:00am 7.9 -1.1 4.3 78 1.6 SSW 41 59 22 32 1012.2 - 4.8
18/01:59am 8.0 -0.6 4.4 78 1.6 SSW 39 59 21 32 1012.2 - 4.8
18/01:30am 8.1 -0.6 2.1 66 2.5 SW 37 52 20 28 1012.3 - 4.8
18/01:00am 8.4 0.7 3.3 70 2.2 SW 33 46 18 25 1012.2 - 4.8
18/12:53am 8.2 -0.7 3.3 71 2.1 SSW 39 57 21 31 1012.1 - 4.8
18/12:42am 8.5 0.2 4.4 75 1.8 SSW 37 52 20 28 1011.9 - 4.8
18/12:30am 8.4 -0.1 3.0 69 2.3 SW 37 50 20 27 1011.9 - 4.8
18/12:21am 8.3 -0.2 2.9 69 2.3 SW 37 56 20 30 1011.8 - 4.8
18/12:00am 8.4 -2.2 3.3 70 2.2 SSW 48 56 26 30 1011.5 1011.6 4.8
 
Date/Time
EST
Temp
°C
App
Temp
°C
Dew
Point
Rel
Hum
%
Delta-T
°C
Wind Press
QNH
hPa
Press
MSL
hPa
Rain
since 9 am
mm
Dir
 
Spd
km/h
Gust
km/h
Spd
kts
Gust
kts
17/11:30pm 8.2 -3.3 2.3 66 2.5 SSW 52 67 28 36 1011.0 - 4.8
17/11:00pm 7.9 -4.2 3.2 72 2.0 SSW 56 65 30 35 1010.6 - 4.8
17/10:32pm 7.7 -3.4 4.5 80 1.4 SSW 52 72 28 39 1010.0 - 4.8
17/10:30pm 7.6 -3.5 4.7 82 1.3 SSW 52 69 28 37 1010.1 - 4.8
17/10:00pm 7.9 -4.1 5.0 82 1.3 S 57 69 31 37 1009.4 - 4.8
17/09:30pm 7.5 -5.3 4.8 83 1.2 SSW 61 74 33 40 1008.7 - 4.8
17/09:06pm 7.6 -5.0 5.6 87 0.9 SSW 61 82 33 44 1008.2 - 4.8
17/09:00pm 7.6 -5.4 5.4 86 1.0 SSW 63 76 34 41 1008.3 1008.3 4.8
17/08:43pm 7.4 -5.9 5.6 88 0.8 SSW 65 83 35 45 1008.1 - 4.8
17/08:38pm 7.2 -7.0 5.9 91 0.6 S 70 83 38 45 1007.8 - 4.8
17/08:35pm 7.3 -3.1 6.0 91 0.6 SSW 50 69 27 37 1008.2 - 4.8
17/08:30pm 7.0 -4.6 5.7 91 0.6 SW 56 72 30 39 1008.2 - 4.4
17/08:23pm 6.8 -6.3 5.2 89 0.7 WSW 63 72 34 39 1008.3 - 4.2
17/08:11pm 6.7 -2.1 5.6 93 0.5 W 41 61 22 33 1008.1 - 4.2
17/08:00pm 6.0 -2.6 4.6 91 0.6 W 39 54 21 29 1008.2 - 4.0
17/07:48pm 5.7 -3.4 4.1 89 0.7 W 41 50 22 27 1008.3 - 3.4
17/07:30pm 5.4 -5.8 3.8 89 0.7 WNW 52 61 28 33 1007.7 - 2.6
17/07:00pm 4.9 -6.2 2.5 84 1.0 W 50 63 27 34 1008.0 - 1.6
17/06:50pm 5.6 -5.2 1.9 77 1.5 W 48 63 26 34 1007.7 - 1.6
17/06:39pm 6.2 -5.0 1.8 73 1.8 WSW 50 63 27 34 1007.4 - 1.6
17/06:30pm 7.0 -4.4 3.0 76 1.7 SSW 52 78 28 42 1007.2 - 1.4
17/06:26pm 7.3 -4.6 2.0 69 2.2 SSW 54 78 29 42 1007.1 - 1.4
17/06:25pm 7.7 -1.5 1.1 63 2.7 W 39 61 21 33 1007.1 - 1.4
17/06:00pm 7.7 -2.4 -2.5 48 3.8 W 41 54 22 29 1006.8 1006.9 1.4
17/05:30pm 8.0 -1.7 0.3 58 3.1 W 41 56 22 30 1006.6 - 1.4
17/05:22pm 8.0 -1.6 -1.7 50 3.7 WSW 39 57 21 31 1006.4 - 1.4
17/05:15pm 8.1 -2.9 -2.2 48 3.9 WSW 46 57 25 31 1006.3 - 1.4
17/05:00pm 8.4 -0.8 -1.1 51 3.7 W 37 59 20 32 1006.2 - 1.4
17/04:41pm 8.5 -1.5 -1.3 50 3.8 W 41 59 22 32 1005.9 - 1.4
17/04:30pm 8.7 -1.6 -1.0 50 3.8 W 43 54 23 29 1005.8 - 1.4
17/04:00pm 8.4 -1.4 -0.1 55 3.4 W 41 56 22 30 1005.6 - 1.4
17/03:53pm 8.4 -0.5 0.5 57 3.2 W 37 56 20 30 1005.5 - 1.4
17/03:30pm 8.6 0.5 1.1 59 3.1 WSW 33 50 18 27 1005.2 - 1.4
17/03:08pm 8.4 -0.2 -0.1 55 3.4 W 35 54 19 29 1005.1 - 1.4
17/03:00pm 8.4 1.0 2.0 64 2.7 W 30 52 16 28 1005.0 1005.1 1.4
17/02:30pm 8.3 -1.6 1.6 62 2.8 WSW 43 63 23 34 1004.8 - 1.4
17/02:08pm 8.4 -0.8 1.4 61 2.9 W 39 57 21 31 1004.6 - 1.4
17/02:00pm 7.7 -1.1 1.4 64 2.6 WSW 37 50 20 27 1004.7 - 1.4
17/01:30pm 8.0 -1.1 3.9 75 1.8 WSW 41 61 22 33 1004.5 - 1.4
17/01:01pm 7.9 -0.2 3.3 73 2.0 WSW 35 57 19 31 1004.3 - 1.4
17/01:00pm 8.0 0.3 3.4 73 2.0 W 33 48 18 26 1004.3 - 1.4
17/12:30pm 7.7 -1.1 3.5 75 1.8 W 39 50 21 27 1004.3 - 1.4
17/12:06pm 7.5 -1.3 3.8 77 1.6 WSW 39 48 21 26 1004.4 - 1.4
17/12:00pm 6.7 0.0 3.4 79 1.4 WNW 28 46 15 25 1004.3 1004.4 1.4
17/11:30am 7.3 -0.6 4.1 80 1.4 WSW 35 46 19 25 1004.3 - 1.4
17/11:00am 7.2 -0.2 4.2 81 1.3 W 32 43 17 23 1004.2 - 1.4
17/10:30am 7.0 -0.2 5.0 87 0.9 W 32 43 17 23 1004.0 - 1.4
17/10:00am 6.6 -1.3 4.6 87 0.9 WNW 35 57 19 31 1003.9 - 1.4
17/09:54am 5.9 -2.9 3.8 86 0.9 W 39 57 21 31 1004.1 - 1.2
17/09:50am 6.9 -0.3 4.9 87 0.9 NW 32 57 17 31 1003.6 - 1.0
17/09:30am 6.6 0.8 4.3 85 1.0 WNW 24 35 13 19 1003.8 - 0.8
17/09:00am 6.7 2.9 5.6 93 0.5 WNW 15 28 8 15 1004.0 1004.0 12.6
17/08:30am 6.8 -1.6 5.5 91 0.6 WNW 39 44 21 24 1003.9 - 11.4
17/08:00am 7.2 -4.0 6.1 93 0.5 WNW 54 61 29 33 1003.5 - 11.2
17/07:51am 7.5 -2.6 5.7 88 0.8 WNW 48 57 26 31 1003.4 - 11.2
17/07:30am 7.2 1.2 5.4 88 0.8 NW 26 35 14 19 1003.9 - 11.2
17/07:00am 6.3 -2.0 5.9 97 0.2 NW 39 50 21 27 1003.6 - 9.0
17/06:58am 6.6 -1.4 5.9 95 0.3 NW 37 48 20 26 1003.7 - 8.4
17/06:30am 7.3 1.5 6.4 94 0.4 NNW 26 35 14 19 1003.5 - 6.6
17/06:00am 7.7 3.2 6.2 90 0.7 NNW 19 41 10 22 1003.9 1003.9 6.0
17/05:30am 7.6 1.5 6.5 93 0.5 N 28 37 15 20 1003.8 - 5.6
17/05:00am 7.2 1.1 6.6 96 0.3 N 28 37 15 20 1004.0 - 5.6
17/04:30am 7.6 1.2 7.0 96 0.3 N 30 41 16 22 1004.2 - 5.0
17/04:00am 8.2 3.0 7.4 95 0.4 NNW 24 33 13 18 1004.5 - 4.8
17/03:30am 8.3 2.4 7.7 96 0.3 NNW 28 43 15 23 1004.5 - 4.8
17/03:00am 8.5 3.3 7.2 91 0.6 NNW 24 32 13 17 1004.9 1005.0 4.6
17/02:30am 8.4 3.2 7.3 93 0.5 NNW 24 32 13 17 1005.2 - 4.6
17/02:00am 8.2 2.7 7.4 95 0.4 NNW 26 35 14 19 1005.7 - 4.6
17/01:30am 8.7 2.8 7.4 91 0.6 NNW 28 37 15 20 1005.9 - 4.2
17/01:00am 8.5 2.2 7.2 91 0.6 NNW 30 41 16 22 1006.4 - 3.8
17/12:30am 8.6 2.3 7.3 91 0.6 NNW 30 37 16 20 1006.4 - 3.6
17/12:00am 8.7 2.7 7.0 89 0.8 NNW 28 37 15 20 1006.7 1006.8 3.4

Other Formats:

Comma delimited format used in spreadsheet applications
http://www.bom.gov.au/fwo/IDT60801/IDT60801.94962.axf

JavaScript Object Notation format (JSON) in row-major order
http://www.bom.gov.au/fwo/IDT60801/IDT60801.94962.json